sensor_id;sensor_type;location;lat;lon;timestamp;temperature;humidity
54938;DHT22;52756;52.826;6.214;2023-02-28T00:01:22;5.00;72.70
54938;DHT22;52756;52.826;6.214;2023-02-28T00:03:48;5.00;72.80
54938;DHT22;52756;52.826;6.214;2023-02-28T00:06:14;5.00;72.80
54938;DHT22;52756;52.826;6.214;2023-02-28T00:08:40;5.00;72.80
54938;DHT22;52756;52.826;6.214;2023-02-28T00:11:09;5.10;72.90
54938;DHT22;52756;52.826;6.214;2023-02-28T00:13:36;5.10;72.90
54938;DHT22;52756;52.826;6.214;2023-02-28T00:16:08;5.00;72.80
54938;DHT22;52756;52.826;6.214;2023-02-28T00:18:35;5.10;72.80
54938;DHT22;52756;52.826;6.214;2023-02-28T00:21:00;5.10;72.70
54938;DHT22;52756;52.826;6.214;2023-02-28T00:23:27;5.10;72.70
54938;DHT22;52756;52.826;6.214;2023-02-28T00:25:53;5.10;72.70
54938;DHT22;52756;52.826;6.214;2023-02-28T00:28:20;5.10;72.70
54938;DHT22;52756;52.826;6.214;2023-02-28T00:30:46;5.10;72.80
54938;DHT22;52756;52.826;6.214;2023-02-28T00:33:11;5.10;72.80
54938;DHT22;52756;52.826;6.214;2023-02-28T00:35:37;5.20;72.80
54938;DHT22;52756;52.826;6.214;2023-02-28T00:38:03;5.20;72.80
54938;DHT22;52756;52.826;6.214;2023-02-28T00:40:29;5.20;72.80
54938;DHT22;52756;52.826;6.214;2023-02-28T00:42:55;5.20;72.80
54938;DHT22;52756;52.826;6.214;2023-02-28T00:45:20;5.20;72.90
54938;DHT22;52756;52.826;6.214;2023-02-28T00:47:46;5.20;72.90
54938;DHT22;52756;52.826;6.214;2023-02-28T00:50:18;5.20;73.00
54938;DHT22;52756;52.826;6.214;2023-02-28T00:52:45;5.20;73.10
54938;DHT22;52756;52.826;6.214;2023-02-28T00:55:11;5.20;73.10
54938;DHT22;52756;52.826;6.214;2023-02-28T00:57:37;5.20;73.10
54938;DHT22;52756;52.826;6.214;2023-02-28T01:00:04;5.20;73.20
54938;DHT22;52756;52.826;6.214;2023-02-28T01:02:30;5.20;73.20
54938;DHT22;52756;52.826;6.214;2023-02-28T01:04:56;5.20;73.20
54938;DHT22;52756;52.826;6.214;2023-02-28T01:07:23;5.20;73.40
54938;DHT22;52756;52.826;6.214;2023-02-28T01:09:48;5.20;73.50
54938;DHT22;52756;52.826;6.214;2023-02-28T01:12:15;5.20;73.60
54938;DHT22;52756;52.826;6.214;2023-02-28T01:14:40;5.20;73.70
54938;DHT22;52756;52.826;6.214;2023-02-28T01:17:06;5.10;73.60
54938;DHT22;52756;52.826;6.214;2023-02-28T01:19:32;5.20;73.70
54938;DHT22;52756;52.826;6.214;2023-02-28T01:22:01;5.40;73.80
54938;DHT22;52756;52.826;6.214;2023-02-28T01:24:28;5.20;73.70
54938;DHT22;52756;52.826;6.214;2023-02-28T01:26:53;5.20;73.70
54938;DHT22;52756;52.826;6.214;2023-02-28T01:29:19;5.40;73.80
54938;DHT22;52756;52.826;6.214;2023-02-28T01:31:45;5.30;73.70
54938;DHT22;52756;52.826;6.214;2023-02-28T01:34:10;5.20;73.60
54938;DHT22;52756;52.826;6.214;2023-02-28T01:36:36;5.20;73.50
54938;DHT22;52756;52.826;6.214;2023-02-28T01:39:03;5.30;73.50
54938;DHT22;52756;52.826;6.214;2023-02-28T01:41:31;5.20;73.50
54938;DHT22;52756;52.826;6.214;2023-02-28T01:47:11;5.30;73.40
54938;DHT22;52756;52.826;6.214;2023-02-28T01:49:36;5.30;73.40
54938;DHT22;52756;52.826;6.214;2023-02-28T01:52:02;5.30;73.40
54938;DHT22;52756;52.826;6.214;2023-02-28T01:54:33;5.30;73.40
54938;DHT22;52756;52.826;6.214;2023-02-28T01:57:16;5.30;73.50
54938;DHT22;52756;52.826;6.214;2023-02-28T02:00:03;5.30;73.50
54938;DHT22;52756;52.826;6.214;2023-02-28T02:02:33;5.30;73.60
54938;DHT22;52756;52.826;6.214;2023-02-28T02:05:09;5.30;73.70
54938;DHT22;52756;52.826;6.214;2023-02-28T02:07:38;5.30;74.30
54938;DHT22;52756;52.826;6.214;2023-02-28T02:10:18;5.40;74.00
54938;DHT22;52756;52.826;6.214;2023-02-28T02:16:06;5.30;74.10
54938;DHT22;52756;52.826;6.214;2023-02-28T02:18:52;5.40;74.20
54938;DHT22;52756;52.826;6.214;2023-02-28T02:21:47;5.30;74.20
54938;DHT22;52756;52.826;6.214;2023-02-28T02:27:13;5.30;74.30
54938;DHT22;52756;52.826;6.214;2023-02-28T02:32:39;5.30;74.40
54938;DHT22;52756;52.826;6.214;2023-02-28T02:37:52;5.30;74.60
54938;DHT22;52756;52.826;6.214;2023-02-28T02:40:38;5.30;74.70
54938;DHT22;52756;52.826;6.214;2023-02-28T02:43:19;5.30;74.70
54938;DHT22;52756;52.826;6.214;2023-02-28T02:45:55;5.30;74.90
54938;DHT22;52756;52.826;6.214;2023-02-28T02:48:26;5.30;74.90
54938;DHT22;52756;52.826;6.214;2023-02-28T02:50:57;5.30;75.10
54938;DHT22;52756;52.826;6.214;2023-02-28T02:53:37;5.30;75.20
54938;DHT22;52756;52.826;6.214;2023-02-28T02:56:04;5.30;75.40
54938;DHT22;52756;52.826;6.214;2023-02-28T02:58:35;5.20;75.40
54938;DHT22;52756;52.826;6.214;2023-02-28T03:01:12;5.20;75.50
54938;DHT22;52756;52.826;6.214;2023-02-28T03:03:40;5.20;75.70
54938;DHT22;52756;52.826;6.214;2023-02-28T03:06:06;5.20;75.80
54938;DHT22;52756;52.826;6.214;2023-02-28T03:08:37;5.20;76.00
54938;DHT22;52756;52.826;6.214;2023-02-28T03:11:05;5.20;76.20
54938;DHT22;52756;52.826;6.214;2023-02-28T03:27:54;5.00;77.10
54938;DHT22;52756;52.826;6.214;2023-02-28T03:33:12;4.80;77.30
54938;DHT22;52756;52.826;6.214;2023-02-28T03:35:48;4.80;77.40
54938;DHT22;52756;52.826;6.214;2023-02-28T03:41:12;4.70;77.80
54938;DHT22;52756;52.826;6.214;2023-02-28T03:43:44;4.70;78.00
54938;DHT22;52756;52.826;6.214;2023-02-28T03:46:12;4.70;78.10
54938;DHT22;52756;52.826;6.214;2023-02-28T03:48:54;4.60;78.20
54938;DHT22;52756;52.826;6.214;2023-02-28T03:51:22;4.60;78.30
54938;DHT22;52756;52.826;6.214;2023-02-28T03:54:03;4.60;78.20
54938;DHT22;52756;52.826;6.214;2023-02-28T03:56:38;4.60;78.30
54938;DHT22;52756;52.826;6.214;2023-02-28T03:59:20;4.60;78.20
54938;DHT22;52756;52.826;6.214;2023-02-28T04:01:49;4.50;78.30
54938;DHT22;52756;52.826;6.214;2023-02-28T04:04:16;4.50;78.30
54938;DHT22;52756;52.826;6.214;2023-02-28T04:06:42;4.50;78.30
54938;DHT22;52756;52.826;6.214;2023-02-28T04:09:11;4.70;78.50
54938;DHT22;52756;52.826;6.214;2023-02-28T04:14:04;4.50;78.30
54938;DHT22;52756;52.826;6.214;2023-02-28T04:16:31;4.50;78.30
54938;DHT22;52756;52.826;6.214;2023-02-28T04:18:57;4.60;78.40
54938;DHT22;52756;52.826;6.214;2023-02-28T04:21:38;4.50;78.30
54938;DHT22;52756;52.826;6.214;2023-02-28T04:24:09;4.50;78.30
54938;DHT22;52756;52.826;6.214;2023-02-28T04:26:40;4.50;78.30
54938;DHT22;52756;52.826;6.214;2023-02-28T04:29:07;4.50;78.30
54938;DHT22;52756;52.826;6.214;2023-02-28T04:31:33;4.50;78.30
54938;DHT22;52756;52.826;6.214;2023-02-28T04:34:00;4.50;78.30
54938;DHT22;52756;52.826;6.214;2023-02-28T04:36:26;4.50;78.40
54938;DHT22;52756;52.826;6.214;2023-02-28T04:38:52;4.50;78.40
54938;DHT22;52756;52.826;6.214;2023-02-28T04:41:17;4.50;78.40
54938;DHT22;52756;52.826;6.214;2023-02-28T04:43:43;4.50;78.40
54938;DHT22;52756;52.826;6.214;2023-02-28T04:46:09;4.50;78.40
54938;DHT22;52756;52.826;6.214;2023-02-28T04:48:39;4.60;78.40
54938;DHT22;52756;52.826;6.214;2023-02-28T04:51:10;4.50;78.40
54938;DHT22;52756;52.826;6.214;2023-02-28T04:53:37;4.50;78.30
54938;DHT22;52756;52.826;6.214;2023-02-28T04:56:04;4.50;78.20
54938;DHT22;52756;52.826;6.214;2023-02-28T04:58:29;4.50;78.20
54938;DHT22;52756;52.826;6.214;2023-02-28T05:01:04;4.50;78.20
54938;DHT22;52756;52.826;6.214;2023-02-28T05:03:38;4.50;78.20
54938;DHT22;52756;52.826;6.214;2023-02-28T05:06:06;4.50;78.10
54938;DHT22;52756;52.826;6.214;2023-02-28T05:08:33;4.50;78.00
54938;DHT22;52756;52.826;6.214;2023-02-28T05:10:59;4.50;77.90
54938;DHT22;52756;52.826;6.214;2023-02-28T05:13:26;4.50;77.90
54938;DHT22;52756;52.826;6.214;2023-02-28T05:15:52;4.60;77.90
54938;DHT22;52756;52.826;6.214;2023-02-28T05:18:18;4.50;77.70
54938;DHT22;52756;52.826;6.214;2023-02-28T05:20:44;4.60;77.70
54938;DHT22;52756;52.826;6.214;2023-02-28T05:23:13;4.60;77.60
54938;DHT22;52756;52.826;6.214;2023-02-28T05:25:40;4.60;77.60
54938;DHT22;52756;52.826;6.214;2023-02-28T05:28:06;4.60;77.50
54938;DHT22;52756;52.826;6.214;2023-02-28T05:30:32;4.60;77.40
54938;DHT22;52756;52.826;6.214;2023-02-28T05:32:58;4.60;77.40
54938;DHT22;52756;52.826;6.214;2023-02-28T05:35:25;4.70;77.40
54938;DHT22;52756;52.826;6.214;2023-02-28T05:37:50;4.60;77.20
54938;DHT22;52756;52.826;6.214;2023-02-28T05:40:17;4.70;77.10
54938;DHT22;52756;52.826;6.214;2023-02-28T05:42:42;4.70;77.10
54938;DHT22;52756;52.826;6.214;2023-02-28T05:45:08;4.60;76.90
54938;DHT22;52756;52.826;6.214;2023-02-28T05:47:35;4.70;76.80
54938;DHT22;52756;52.826;6.214;2023-02-28T05:50:01;4.70;76.70
54938;DHT22;52756;52.826;6.214;2023-02-28T05:52:27;4.70;76.40
54938;DHT22;52756;52.826;6.214;2023-02-28T05:54:53;4.70;76.40
54938;DHT22;52756;52.826;6.214;2023-02-28T05:57:19;4.70;76.40
54938;DHT22;52756;52.826;6.214;2023-02-28T05:59:44;4.80;76.50
54938;DHT22;52756;52.826;6.214;2023-02-28T06:02:15;4.60;76.50
54938;DHT22;52756;52.826;6.214;2023-02-28T06:04:42;4.70;76.50
54938;DHT22;52756;52.826;6.214;2023-02-28T06:07:09;4.70;76.60
54938;DHT22;52756;52.826;6.214;2023-02-28T06:09:35;4.80;76.60
54938;DHT22;52756;52.826;6.214;2023-02-28T06:12:02;4.70;76.50
54938;DHT22;52756;52.826;6.214;2023-02-28T06:14:29;4.70;76.50
54938;DHT22;52756;52.826;6.214;2023-02-28T06:16:57;4.70;76.50
54938;DHT22;52756;52.826;6.214;2023-02-28T06:19:23;4.70;76.40
54938;DHT22;52756;52.826;6.214;2023-02-28T06:21:51;4.70;76.30
54938;DHT22;52756;52.826;6.214;2023-02-28T06:24:25;4.60;76.10
54938;DHT22;52756;52.826;6.214;2023-02-28T06:26:53;4.70;76.10
54938;DHT22;52756;52.826;6.214;2023-02-28T06:29:19;4.70;76.00
54938;DHT22;52756;52.826;6.214;2023-02-28T06:31:45;4.70;76.00
54938;DHT22;52756;52.826;6.214;2023-02-28T06:34:13;4.70;76.10
54938;DHT22;52756;52.826;6.214;2023-02-28T06:36:39;4.70;76.10
54938;DHT22;52756;52.826;6.214;2023-02-28T06:39:05;4.70;76.10
54938;DHT22;52756;52.826;6.214;2023-02-28T06:41:31;4.60;76.10
54938;DHT22;52756;52.826;6.214;2023-02-28T06:43:57;4.70;76.20
54938;DHT22;52756;52.826;6.214;2023-02-28T06:46:23;4.70;76.20
54938;DHT22;52756;52.826;6.214;2023-02-28T06:48:49;4.70;76.20
54938;DHT22;52756;52.826;6.214;2023-02-28T06:51:19;4.70;76.20
54938;DHT22;52756;52.826;6.214;2023-02-28T06:53:47;4.80;76.30
54938;DHT22;52756;52.826;6.214;2023-02-28T06:56:14;4.70;76.20
54938;DHT22;52756;52.826;6.214;2023-02-28T06:58:41;4.80;76.20
54938;DHT22;52756;52.826;6.214;2023-02-28T07:01:07;4.70;76.20
54938;DHT22;52756;52.826;6.214;2023-02-28T07:03:35;4.80;76.60
54938;DHT22;52756;52.826;6.214;2023-02-28T07:06:01;4.80;76.20
54938;DHT22;52756;52.826;6.214;2023-02-28T07:08:28;4.80;76.20
54938;DHT22;52756;52.826;6.214;2023-02-28T07:10:55;4.80;76.20
54938;DHT22;52756;52.826;6.214;2023-02-28T07:13:21;4.80;76.20
54938;DHT22;52756;52.826;6.214;2023-02-28T07:16:00;4.80;76.10
54938;DHT22;52756;52.826;6.214;2023-02-28T07:18:26;4.80;76.10
54938;DHT22;52756;52.826;6.214;2023-02-28T07:20:52;4.80;76.20
54938;DHT22;52756;52.826;6.214;2023-02-28T07:23:18;4.90;76.30
54938;DHT22;52756;52.826;6.214;2023-02-28T07:25:45;4.80;76.20
54938;DHT22;52756;52.826;6.214;2023-02-28T07:28:11;4.80;76.20
54938;DHT22;52756;52.826;6.214;2023-02-28T07:30:37;4.80;76.20
54938;DHT22;52756;52.826;6.214;2023-02-28T07:33:03;4.80;76.20
54938;DHT22;52756;52.826;6.214;2023-02-28T07:35:29;4.80;76.20
54938;DHT22;52756;52.826;6.214;2023-02-28T07:37:56;4.90;76.20
54938;DHT22;52756;52.826;6.214;2023-02-28T07:40:22;4.80;76.20
54938;DHT22;52756;52.826;6.214;2023-02-28T07:42:48;4.90;76.30
54938;DHT22;52756;52.826;6.214;2023-02-28T07:45:13;4.90;76.30
54938;DHT22;52756;52.826;6.214;2023-02-28T07:47:40;4.90;76.30
54938;DHT22;52756;52.826;6.214;2023-02-28T07:50:08;4.90;76.20
54938;DHT22;52756;52.826;6.214;2023-02-28T07:52:36;4.90;76.20
54938;DHT22;52756;52.826;6.214;2023-02-28T07:55:02;4.90;76.20
54938;DHT22;52756;52.826;6.214;2023-02-28T07:57:28;4.90;76.20
54938;DHT22;52756;52.826;6.214;2023-02-28T07:59:54;5.00;76.30
54938;DHT22;52756;52.826;6.214;2023-02-28T08:02:20;5.00;76.30
54938;DHT22;52756;52.826;6.214;2023-02-28T08:04:45;5.00;76.30
54938;DHT22;52756;52.826;6.214;2023-02-28T08:07:15;5.00;76.30
54938;DHT22;52756;52.826;6.214;2023-02-28T08:09:41;5.00;76.20
54938;DHT22;52756;52.826;6.214;2023-02-28T08:12:08;5.00;76.20
54938;DHT22;52756;52.826;6.214;2023-02-28T08:14:35;5.00;76.10
54938;DHT22;52756;52.826;6.214;2023-02-28T08:17:01;5.00;76.10
54938;DHT22;52756;52.826;6.214;2023-02-28T08:19:27;5.00;76.00
54938;DHT22;52756;52.826;6.214;2023-02-28T08:21:52;5.10;76.00
54938;DHT22;52756;52.826;6.214;2023-02-28T08:24:18;5.00;75.80
54938;DHT22;52756;52.826;6.214;2023-02-28T08:26:44;5.10;75.90
54938;DHT22;52756;52.826;6.214;2023-02-28T08:29:10;5.10;76.00
54938;DHT22;52756;52.826;6.214;2023-02-28T08:31:35;5.10;76.00
54938;DHT22;52756;52.826;6.214;2023-02-28T08:34:06;5.10;76.00
54938;DHT22;52756;52.826;6.214;2023-02-28T08:36:32;5.10;75.90
54938;DHT22;52756;52.826;6.214;2023-02-28T08:38:57;5.10;75.90
54938;DHT22;52756;52.826;6.214;2023-02-28T08:41:25;5.20;76.00
54938;DHT22;52756;52.826;6.214;2023-02-28T08:43:51;5.20;76.00
54938;DHT22;52756;52.826;6.214;2023-02-28T08:46:17;5.20;75.80
54938;DHT22;52756;52.826;6.214;2023-02-28T08:48:43;5.20;75.80
54938;DHT22;52756;52.826;6.214;2023-02-28T08:51:15;5.20;75.70
54938;DHT22;52756;52.826;6.214;2023-02-28T08:53:44;5.20;75.50
54938;DHT22;52756;52.826;6.214;2023-02-28T08:56:12;5.20;75.40
54938;DHT22;52756;52.826;6.214;2023-02-28T08:58:39;5.20;75.50
54938;DHT22;52756;52.826;6.214;2023-02-28T09:01:19;5.20;75.50
54938;DHT22;52756;52.826;6.214;2023-02-28T09:03:46;5.20;75.50
54938;DHT22;52756;52.826;6.214;2023-02-28T09:06:13;5.20;75.50
54938;DHT22;52756;52.826;6.214;2023-02-28T09:08:40;5.20;76.20
54938;DHT22;52756;52.826;6.214;2023-02-28T09:11:06;5.40;77.10
54938;DHT22;52756;52.826;6.214;2023-02-28T09:13:32;5.40;77.30
54938;DHT22;52756;52.826;6.214;2023-02-28T09:16:00;5.60;77.60
54938;DHT22;52756;52.826;6.214;2023-02-28T09:18:26;5.90;78.20
54938;DHT22;52756;52.826;6.214;2023-02-28T09:20:52;6.20;78.00
54938;DHT22;52756;52.826;6.214;2023-02-28T09:23:17;6.60;77.60
54938;DHT22;52756;52.826;6.214;2023-02-28T09:25:48;6.90;76.70
54938;DHT22;52756;52.826;6.214;2023-02-28T09:28:15;7.00;75.60
54938;DHT22;52756;52.826;6.214;2023-02-28T09:30:49;7.20;74.70
54938;DHT22;52756;52.826;6.214;2023-02-28T09:33:16;7.40;73.80
54938;DHT22;52756;52.826;6.214;2023-02-28T09:35:42;7.50;73.30
54938;DHT22;52756;52.826;6.214;2023-02-28T09:38:09;7.60;72.50
54938;DHT22;52756;52.826;6.214;2023-02-28T09:40:39;7.60;71.50
54938;DHT22;52756;52.826;6.214;2023-02-28T09:43:12;7.70;71.20
54938;DHT22;52756;52.826;6.214;2023-02-28T09:45:41;7.70;70.70
54938;DHT22;52756;52.826;6.214;2023-02-28T09:48:16;7.80;70.20
54938;DHT22;52756;52.826;6.214;2023-02-28T09:50:48;7.80;69.70
54938;DHT22;52756;52.826;6.214;2023-02-28T09:53:30;7.80;69.70
54938;DHT22;52756;52.826;6.214;2023-02-28T09:56:03;7.80;69.30
54938;DHT22;52756;52.826;6.214;2023-02-28T10:01:58;7.80;68.90
54938;DHT22;52756;52.826;6.214;2023-02-28T10:04:37;7.80;68.40
54938;DHT22;52756;52.826;6.214;2023-02-28T10:07:17;7.80;67.90
54938;DHT22;52756;52.826;6.214;2023-02-28T10:09:52;7.80;67.80
54938;DHT22;52756;52.826;6.214;2023-02-28T10:12:20;7.80;68.50
54938;DHT22;52756;52.826;6.214;2023-02-28T10:14:49;7.80;68.60
54938;DHT22;52756;52.826;6.214;2023-02-28T10:17:38;7.90;67.80
54938;DHT22;52756;52.826;6.214;2023-02-28T10:20:14;8.00;64.00
54938;DHT22;52756;52.826;6.214;2023-02-28T10:25:37;8.00;62.40
54938;DHT22;52756;52.826;6.214;2023-02-28T10:28:14;8.00;63.20
54938;DHT22;52756;52.826;6.214;2023-02-28T10:30:46;8.00;62.50
54938;DHT22;52756;52.826;6.214;2023-02-28T10:33:26;8.10;62.80
54938;DHT22;52756;52.826;6.214;2023-02-28T10:35:53;8.20;62.00
54938;DHT22;52756;52.826;6.214;2023-02-28T10:38:26;8.30;62.60
54938;DHT22;52756;52.826;6.214;2023-02-28T10:41:04;8.30;61.90
54938;DHT22;52756;52.826;6.214;2023-02-28T10:43:30;8.50;62.00
54938;DHT22;52756;52.826;6.214;2023-02-28T10:45:59;8.50;62.20
54938;DHT22;52756;52.826;6.214;2023-02-28T10:48:27;8.60;61.40
54938;DHT22;52756;52.826;6.214;2023-02-28T10:50:55;8.70;60.50
54938;DHT22;52756;52.826;6.214;2023-02-28T11:01:40;8.80;59.10
54938;DHT22;52756;52.826;6.214;2023-02-28T11:06:47;8.90;58.50
54938;DHT22;52756;52.826;6.214;2023-02-28T11:09:33;8.90;58.40
54938;DHT22;52756;52.826;6.214;2023-02-28T11:12:02;9.00;57.50
54938;DHT22;52756;52.826;6.214;2023-02-28T11:14:31;9.00;58.20
54938;DHT22;52756;52.826;6.214;2023-02-28T11:17:11;9.00;57.60
54938;DHT22;52756;52.826;6.214;2023-02-28T11:19:44;9.00;57.20
54938;DHT22;52756;52.826;6.214;2023-02-28T11:22:10;9.10;57.40
54938;DHT22;52756;52.826;6.214;2023-02-28T11:24:45;9.10;57.50
54938;DHT22;52756;52.826;6.214;2023-02-28T11:27:52;9.20;56.80
54938;DHT22;52756;52.826;6.214;2023-02-28T11:32:51;9.10;55.70
54938;DHT22;52756;52.826;6.214;2023-02-28T11:35:53;9.00;56.50
54938;DHT22;52756;52.826;6.214;2023-02-28T11:38:12;9.00;56.80
54938;DHT22;52756;52.826;6.214;2023-02-28T11:48:22;9.00;54.90
54938;DHT22;52756;52.826;6.214;2023-02-28T12:13:20;8.90;53.80
54938;DHT22;52756;52.826;6.214;2023-02-28T12:26:45;8.80;54.20
54938;DHT22;52756;52.826;6.214;2023-02-28T12:29:28;8.80;54.00
54938;DHT22;52756;52.826;6.214;2023-02-28T12:32:05;8.70;54.40
54938;DHT22;52756;52.826;6.214;2023-02-28T12:34:36;8.70;53.80
54938;DHT22;52756;52.826;6.214;2023-02-28T12:37:49;8.70;53.80
54938;DHT22;52756;52.826;6.214;2023-02-28T12:40:01;8.70;54.00
54938;DHT22;52756;52.826;6.214;2023-02-28T12:42:33;8.60;54.90
54938;DHT22;52756;52.826;6.214;2023-02-28T12:45:07;8.60;55.00
54938;DHT22;52756;52.826;6.214;2023-02-28T12:47:38;8.60;54.70
54938;DHT22;52756;52.826;6.214;2023-02-28T12:50:09;8.50;53.80
54938;DHT22;52756;52.826;6.214;2023-02-28T12:52:58;8.50;52.70
54938;DHT22;52756;52.826;6.214;2023-02-28T13:09:15;8.30;50.90
54938;DHT22;52756;52.826;6.214;2023-02-28T13:11:53;8.30;51.20
54938;DHT22;52756;52.826;6.214;2023-02-28T13:19:37;8.20;51.10
54938;DHT22;52756;52.826;6.214;2023-02-28T13:22:03;8.20;50.50
54938;DHT22;52756;52.826;6.214;2023-02-28T13:24:48;8.10;50.90
54938;DHT22;52756;52.826;6.214;2023-02-28T13:29:44;8.10;50.70
54938;DHT22;52756;52.826;6.214;2023-02-28T13:34:37;8.10;49.50
54938;DHT22;52756;52.826;6.214;2023-02-28T13:39:51;8.10;50.20
54938;DHT22;52756;52.826;6.214;2023-02-28T13:47:44;8.00;49.10
54938;DHT22;52756;52.826;6.214;2023-02-28T14:06:38;8.00;52.10
54938;DHT22;52756;52.826;6.214;2023-02-28T14:09:31;8.00;52.10
54938;DHT22;52756;52.826;6.214;2023-02-28T14:15:17;8.00;52.30
54938;DHT22;52756;52.826;6.214;2023-02-28T14:17:55;7.90;52.20
54938;DHT22;52756;52.826;6.214;2023-02-28T14:20:22;8.00;52.50
54938;DHT22;52756;52.826;6.214;2023-02-28T14:22:53;8.00;52.70
54938;DHT22;52756;52.826;6.214;2023-02-28T14:30:51;8.00;51.70
54938;DHT22;52756;52.826;6.214;2023-02-28T14:36:31;8.00;51.50
54938;DHT22;52756;52.826;6.214;2023-02-28T14:39:01;8.00;50.50
54938;DHT22;52756;52.826;6.214;2023-02-28T14:41:39;8.00;50.50
54938;DHT22;52756;52.826;6.214;2023-02-28T14:44:21;8.00;49.70
54938;DHT22;52756;52.826;6.214;2023-02-28T14:46:53;8.00;50.20
54938;DHT22;52756;52.826;6.214;2023-02-28T14:52:03;8.00;49.80
54938;DHT22;52756;52.826;6.214;2023-02-28T14:54:30;8.00;49.80
54938;DHT22;52756;52.826;6.214;2023-02-28T14:56:56;8.00;49.70
54938;DHT22;52756;52.826;6.214;2023-02-28T14:59:33;8.00;49.60
54938;DHT22;52756;52.826;6.214;2023-02-28T15:02:19;8.10;49.50
54938;DHT22;52756;52.826;6.214;2023-02-28T15:05:10;8.10;49.90
54938;DHT22;52756;52.826;6.214;2023-02-28T15:07:38;8.10;50.40
54938;DHT22;52756;52.826;6.214;2023-02-28T15:12:51;8.10;50.50
54938;DHT22;52756;52.826;6.214;2023-02-28T15:15:17;8.10;49.90
54938;DHT22;52756;52.826;6.214;2023-02-28T15:18:02;8.10;50.20
54938;DHT22;52756;52.826;6.214;2023-02-28T15:20:32;8.10;50.90
54938;DHT22;52756;52.826;6.214;2023-02-28T15:22:59;8.10;50.50
54938;DHT22;52756;52.826;6.214;2023-02-28T15:25:26;8.00;50.00
54938;DHT22;52756;52.826;6.214;2023-02-28T15:27:54;8.00;49.80
54938;DHT22;52756;52.826;6.214;2023-02-28T15:30:31;8.00;49.60
54938;DHT22;52756;52.826;6.214;2023-02-28T15:33:18;8.00;50.20
54938;DHT22;52756;52.826;6.214;2023-02-28T15:35:44;8.00;50.10
54938;DHT22;52756;52.826;6.214;2023-02-28T15:38:26;8.00;49.80
54938;DHT22;52756;52.826;6.214;2023-02-28T15:40:57;8.00;49.70
54938;DHT22;52756;52.826;6.214;2023-02-28T15:43:37;8.00;49.90
54938;DHT22;52756;52.826;6.214;2023-02-28T15:46:08;7.90;50.10
54938;DHT22;52756;52.826;6.214;2023-02-28T15:48:56;7.90;50.40
54938;DHT22;52756;52.826;6.214;2023-02-28T15:51:36;7.90;50.30
54938;DHT22;52756;52.826;6.214;2023-02-28T15:54:07;7.90;50.40
54938;DHT22;52756;52.826;6.214;2023-02-28T15:56:46;7.80;50.70
54938;DHT22;52756;52.826;6.214;2023-02-28T15:59:19;7.80;50.50
54938;DHT22;52756;52.826;6.214;2023-02-28T16:01:46;7.80;50.60
54938;DHT22;52756;52.826;6.214;2023-02-28T16:04:16;7.70;50.40
54938;DHT22;52756;52.826;6.214;2023-02-28T16:06:44;7.70;50.60
54938;DHT22;52756;52.826;6.214;2023-02-28T16:09:13;7.70;50.80
54938;DHT22;52756;52.826;6.214;2023-02-28T16:11:48;7.70;51.00
54938;DHT22;52756;52.826;6.214;2023-02-28T16:14:21;7.70;51.50
54938;DHT22;52756;52.826;6.214;2023-02-28T16:16:53;7.60;52.00
54938;DHT22;52756;52.826;6.214;2023-02-28T16:19:22;7.60;51.90
54938;DHT22;52756;52.826;6.214;2023-02-28T16:21:49;7.60;51.90
54938;DHT22;52756;52.826;6.214;2023-02-28T16:24:15;7.60;52.40
54938;DHT22;52756;52.826;6.214;2023-02-28T16:26:42;7.60;52.50
54938;DHT22;52756;52.826;6.214;2023-02-28T16:29:15;7.60;52.60
54938;DHT22;52756;52.826;6.214;2023-02-28T16:31:43;7.60;52.60
54938;DHT22;52756;52.826;6.214;2023-02-28T16:34:09;7.60;52.80
54938;DHT22;52756;52.826;6.214;2023-02-28T16:36:35;7.60;52.90
54938;DHT22;52756;52.826;6.214;2023-02-28T16:39:00;7.50;52.90
54938;DHT22;52756;52.826;6.214;2023-02-28T16:41:28;7.60;53.00
54938;DHT22;52756;52.826;6.214;2023-02-28T16:43:56;7.50;53.00
54938;DHT22;52756;52.826;6.214;2023-02-28T16:46:34;7.50;53.20
54938;DHT22;52756;52.826;6.214;2023-02-28T16:49:00;7.50;53.20
54938;DHT22;52756;52.826;6.214;2023-02-28T16:51:26;7.50;53.70
54938;DHT22;52756;52.826;6.214;2023-02-28T16:53:51;7.50;54.20
54938;DHT22;52756;52.826;6.214;2023-02-28T16:56:20;7.50;54.90
54938;DHT22;52756;52.826;6.214;2023-02-28T16:58:47;7.50;55.00
54938;DHT22;52756;52.826;6.214;2023-02-28T17:01:13;7.50;55.50
54938;DHT22;52756;52.826;6.214;2023-02-28T17:58:52;6.70;58.00
54938;DHT22;52756;52.826;6.214;2023-02-28T18:01:19;6.80;55.80
54938;DHT22;52756;52.826;6.214;2023-02-28T18:03:46;6.70;56.90
54938;DHT22;52756;52.826;6.214;2023-02-28T18:06:23;6.60;57.70
54938;DHT22;52756;52.826;6.214;2023-02-28T18:08:49;6.50;58.40
54938;DHT22;52756;52.826;6.214;2023-02-28T18:11:18;6.50;58.80
54938;DHT22;52756;52.826;6.214;2023-02-28T18:13:48;6.50;59.10
54938;DHT22;52756;52.826;6.214;2023-02-28T18:16:15;6.40;59.40
54938;DHT22;52756;52.826;6.214;2023-02-28T18:18:41;6.30;59.60
54938;DHT22;52756;52.826;6.214;2023-02-28T18:21:08;6.30;59.80
54938;DHT22;52756;52.826;6.214;2023-02-28T18:23:35;6.30;60.10
54938;DHT22;52756;52.826;6.214;2023-02-28T18:26:02;6.20;60.10
54938;DHT22;52756;52.826;6.214;2023-02-28T18:28:31;6.20;60.20
54938;DHT22;52756;52.826;6.214;2023-02-28T18:31:05;6.20;60.20
54938;DHT22;52756;52.826;6.214;2023-02-28T18:33:31;6.10;60.10
54938;DHT22;52756;52.826;6.214;2023-02-28T18:35:56;6.00;60.20
54938;DHT22;52756;52.826;6.214;2023-02-28T18:38:22;6.00;60.40
54938;DHT22;52756;52.826;6.214;2023-02-28T18:40:59;6.00;60.60
54938;DHT22;52756;52.826;6.214;2023-02-28T18:43:26;6.00;60.70
54938;DHT22;52756;52.826;6.214;2023-02-28T18:45:52;5.90;60.70
54938;DHT22;52756;52.826;6.214;2023-02-28T18:48:18;5.80;60.80
54938;DHT22;52756;52.826;6.214;2023-02-28T18:50:45;5.80;60.90
54938;DHT22;52756;52.826;6.214;2023-02-28T18:53:11;5.80;60.90
54938;DHT22;52756;52.826;6.214;2023-02-28T18:55:37;5.80;61.00
54938;DHT22;52756;52.826;6.214;2023-02-28T18:58:03;5.70;61.00
54938;DHT22;52756;52.826;6.214;2023-02-28T19:00:29;5.70;61.10
54938;DHT22;52756;52.826;6.214;2023-02-28T19:02:55;5.60;61.10
54938;DHT22;52756;52.826;6.214;2023-02-28T19:05:21;5.60;61.20
54938;DHT22;52756;52.826;6.214;2023-02-28T19:07:47;5.50;61.20
54938;DHT22;52756;52.826;6.214;2023-02-28T19:10:13;5.50;61.30
54938;DHT22;52756;52.826;6.214;2023-02-28T19:12:39;5.50;61.10
54938;DHT22;52756;52.826;6.214;2023-02-28T19:15:07;5.40;61.10
54938;DHT22;52756;52.826;6.214;2023-02-28T19:17:33;5.40;61.20
54938;DHT22;52756;52.826;6.214;2023-02-28T19:19:59;5.30;61.20
54938;DHT22;52756;52.826;6.214;2023-02-28T19:22:25;5.30;61.30
54938;DHT22;52756;52.826;6.214;2023-02-28T19:24:51;5.20;61.30
54938;DHT22;52756;52.826;6.214;2023-02-28T19:27:17;5.20;61.50
54938;DHT22;52756;52.826;6.214;2023-02-28T19:29:50;5.20;61.60
54938;DHT22;52756;52.826;6.214;2023-02-28T19:32:18;5.10;61.70
54938;DHT22;52756;52.826;6.214;2023-02-28T19:34:47;5.10;61.90
54938;DHT22;52756;52.826;6.214;2023-02-28T19:37:12;5.00;61.90
54938;DHT22;52756;52.826;6.214;2023-02-28T19:39:38;5.00;62.00